sensor_id;sensor_type;location;lat;lon;timestamp;P1;durP1;ratioP1;P2;durP2;ratioP2
78774;SDS011;68119;43.398;3.676;2023-07-16T00:01:54;4.75;;;2.60;;
78774;SDS011;68119;43.398;3.676;2023-07-16T00:04:28;5.60;;;2.47;;
78774;SDS011;68119;43.398;3.676;2023-07-16T00:07:02;5.70;;;2.45;;
78774;SDS011;68119;43.398;3.676;2023-07-16T00:09:34;7.18;;;2.70;;
78774;SDS011;68119;43.398;3.676;2023-07-16T00:14:30;5.15;;;2.63;;
78774;SDS011;68119;43.398;3.676;2023-07-16T00:17:05;6.50;;;2.95;;
78774;SDS011;68119;43.398;3.676;2023-07-16T00:19:36;6.47;;;2.63;;
78774;SDS011;68119;43.398;3.676;2023-07-16T00:22:07;6.60;;;2.70;;
78774;SDS011;68119;43.398;3.676;2023-07-16T00:24:43;7.00;;;3.13;;
78774;SDS011;68119;43.398;3.676;2023-07-16T00:29:37;4.35;;;2.60;;
78774;SDS011;68119;43.398;3.676;2023-07-16T00:32:06;5.55;;;2.75;;
78774;SDS011;68119;43.398;3.676;2023-07-16T00:34:34;3.97;;;2.50;;
78774;SDS011;68119;43.398;3.676;2023-07-16T00:37:03;5.78;;;2.75;;
78774;SDS011;68119;43.398;3.676;2023-07-16T00:39:35;6.40;;;2.72;;
78774;SDS011;68119;43.398;3.676;2023-07-16T00:42:05;7.10;;;2.60;;
78774;SDS011;68119;43.398;3.676;2023-07-16T00:44:34;4.60;;;2.60;;
78774;SDS011;68119;43.398;3.676;2023-07-16T00:47:08;5.03;;;2.60;;
78774;SDS011;68119;43.398;3.676;2023-07-16T00:49:42;3.50;;;2.20;;
78774;SDS011;68119;43.398;3.676;2023-07-16T00:52:11;5.68;;;2.63;;
78774;SDS011;68119;43.398;3.676;2023-07-16T00:54:46;3.70;;;2.45;;
78774;SDS011;68119;43.398;3.676;2023-07-16T00:57:15;4.20;;;2.42;;
78774;SDS011;68119;43.398;3.676;2023-07-16T00:59:44;6.20;;;2.67;;
78774;SDS011;68119;43.398;3.676;2023-07-16T01:02:18;5.18;;;2.53;;
78774;SDS011;68119;43.398;3.676;2023-07-16T01:04:47;6.63;;;2.72;;
78774;SDS011;68119;43.398;3.676;2023-07-16T01:07:18;4.57;;;2.67;;
78774;SDS011;68119;43.398;3.676;2023-07-16T01:09:52;4.70;;;2.30;;
78774;SDS011;68119;43.398;3.676;2023-07-16T01:12:22;6.93;;;2.28;;
78774;SDS011;68119;43.398;3.676;2023-07-16T01:14:49;5.30;;;2.15;;
78774;SDS011;68119;43.398;3.676;2023-07-16T01:17:20;7.85;;;2.30;;
78774;SDS011;68119;43.398;3.676;2023-07-16T01:19:51;6.53;;;2.45;;
78774;SDS011;68119;43.398;3.676;2023-07-16T01:22:28;8.73;;;2.70;;
78774;SDS011;68119;43.398;3.676;2023-07-16T01:31:15;5.40;;;2.53;;
78774;SDS011;68119;43.398;3.676;2023-07-16T01:33:45;5.90;;;2.58;;
78774;SDS011;68119;43.398;3.676;2023-07-16T01:36:22;6.72;;;2.40;;
78774;SDS011;68119;43.398;3.676;2023-07-16T01:38:51;4.03;;;2.08;;
78774;SDS011;68119;43.398;3.676;2023-07-16T01:41:22;6.10;;;2.58;;
78774;SDS011;68119;43.398;3.676;2023-07-16T01:43:50;11.20;;;2.30;;
78774;SDS011;68119;43.398;3.676;2023-07-16T01:46:24;5.22;;;2.20;;
78774;SDS011;68119;43.398;3.676;2023-07-16T01:48:55;5.03;;;2.53;;
78774;SDS011;68119;43.398;3.676;2023-07-16T01:51:23;7.15;;;2.40;;
78774;SDS011;68119;43.398;3.676;2023-07-16T01:53:52;5.75;;;2.60;;
78774;SDS011;68119;43.398;3.676;2023-07-16T01:56:23;5.28;;;2.53;;
78774;SDS011;68119;43.398;3.676;2023-07-16T01:58:52;5.38;;;2.13;;
78774;SDS011;68119;43.398;3.676;2023-07-16T02:01:21;3.45;;;2.30;;
78774;SDS011;68119;43.398;3.676;2023-07-16T02:03:58;8.35;;;2.38;;
78774;SDS011;68119;43.398;3.676;2023-07-16T02:06:31;6.47;;;2.38;;
78774;SDS011;68119;43.398;3.676;2023-07-16T02:09:05;3.95;;;2.03;;
78774;SDS011;68119;43.398;3.676;2023-07-16T02:14:07;7.35;;;2.05;;
78774;SDS011;68119;43.398;3.676;2023-07-16T02:16:35;4.82;;;2.20;;
78774;SDS011;68119;43.398;3.676;2023-07-16T02:19:01;5.78;;;2.22;;
78774;SDS011;68119;43.398;3.676;2023-07-16T02:21:35;6.72;;;2.50;;
78774;SDS011;68119;43.398;3.676;2023-07-16T02:24:08;7.13;;;2.30;;
78774;SDS011;68119;43.398;3.676;2023-07-16T02:26:42;3.72;;;2.05;;
78774;SDS011;68119;43.398;3.676;2023-07-16T02:29:14;4.60;;;2.50;;
78774;SDS011;68119;43.398;3.676;2023-07-16T02:31:45;7.10;;;2.47;;
78774;SDS011;68119;43.398;3.676;2023-07-16T02:34:13;5.03;;;2.20;;
78774;SDS011;68119;43.398;3.676;2023-07-16T02:36:39;5.50;;;2.58;;
78774;SDS011;68119;43.398;3.676;2023-07-16T02:39:10;5.00;;;2.30;;
78774;SDS011;68119;43.398;3.676;2023-07-16T02:41:39;5.65;;;2.42;;
78774;SDS011;68119;43.398;3.676;2023-07-16T02:44:12;4.00;;;2.20;;
78774;SDS011;68119;43.398;3.676;2023-07-16T02:46:45;4.75;;;2.30;;
78774;SDS011;68119;43.398;3.676;2023-07-16T02:51:44;4.72;;;2.17;;
78774;SDS011;68119;43.398;3.676;2023-07-16T02:54:17;5.07;;;2.30;;
78774;SDS011;68119;43.398;3.676;2023-07-16T02:56:45;7.45;;;2.58;;
78774;SDS011;68119;43.398;3.676;2023-07-16T02:59:16;5.35;;;2.42;;
78774;SDS011;68119;43.398;3.676;2023-07-16T03:01:50;5.22;;;2.40;;
78774;SDS011;68119;43.398;3.676;2023-07-16T03:04:24;5.20;;;2.50;;
78774;SDS011;68119;43.398;3.676;2023-07-16T03:06:52;4.70;;;2.38;;
78774;SDS011;68119;43.398;3.676;2023-07-16T03:09:25;3.97;;;2.45;;
78774;SDS011;68119;43.398;3.676;2023-07-16T03:11:56;4.32;;;2.28;;
78774;SDS011;68119;43.398;3.676;2023-07-16T03:14:30;5.50;;;2.42;;
78774;SDS011;68119;43.398;3.676;2023-07-16T03:17:00;5.13;;;2.38;;
78774;SDS011;68119;43.398;3.676;2023-07-16T03:19:34;5.20;;;2.40;;
78774;SDS011;68119;43.398;3.676;2023-07-16T03:22:04;5.07;;;2.30;;
78774;SDS011;68119;43.398;3.676;2023-07-16T03:24:44;3.42;;;2.40;;
78774;SDS011;68119;43.398;3.676;2023-07-16T03:27:23;6.15;;;2.33;;
78774;SDS011;68119;43.398;3.676;2023-07-16T03:29:51;5.32;;;2.47;;
78774;SDS011;68119;43.398;3.676;2023-07-16T03:32:19;4.35;;;2.60;;
78774;SDS011;68119;43.398;3.676;2023-07-16T03:34:45;3.60;;;2.30;;
78774;SDS011;68119;43.398;3.676;2023-07-16T03:37:14;4.07;;;2.20;;
78774;SDS011;68119;43.398;3.676;2023-07-16T03:39:42;3.38;;;2.40;;
78774;SDS011;68119;43.398;3.676;2023-07-16T03:42:10;4.95;;;2.60;;
78774;SDS011;68119;43.398;3.676;2023-07-16T03:47:15;3.88;;;2.28;;
78774;SDS011;68119;43.398;3.676;2023-07-16T03:49:49;5.10;;;2.25;;
78774;SDS011;68119;43.398;3.676;2023-07-16T03:52:15;6.88;;;2.40;;
78774;SDS011;68119;43.398;3.676;2023-07-16T03:54:48;3.33;;;2.10;;
78774;SDS011;68119;43.398;3.676;2023-07-16T03:57:17;7.65;;;2.58;;
78774;SDS011;68119;43.398;3.676;2023-07-16T03:59:48;5.60;;;2.40;;
78774;SDS011;68119;43.398;3.676;2023-07-16T04:02:17;5.18;;;2.20;;
78774;SDS011;68119;43.398;3.676;2023-07-16T04:04:45;6.03;;;2.60;;
78774;SDS011;68119;43.398;3.676;2023-07-16T04:07:22;5.45;;;2.30;;
78774;SDS011;68119;43.398;3.676;2023-07-16T04:09:48;6.68;;;2.25;;
78774;SDS011;68119;43.398;3.676;2023-07-16T04:12:17;5.70;;;2.47;;
78774;SDS011;68119;43.398;3.676;2023-07-16T04:14:48;5.60;;;2.67;;
78774;SDS011;68119;43.398;3.676;2023-07-16T04:17:18;7.32;;;2.55;;
78774;SDS011;68119;43.398;3.676;2023-07-16T04:19:49;5.22;;;2.60;;
78774;SDS011;68119;43.398;3.676;2023-07-16T04:22:18;6.13;;;2.35;;
78774;SDS011;68119;43.398;3.676;2023-07-16T04:24:46;3.97;;;2.35;;
78774;SDS011;68119;43.398;3.676;2023-07-16T04:27:20;4.72;;;2.20;;
78774;SDS011;68119;43.398;3.676;2023-07-16T04:29:48;4.97;;;2.50;;
78774;SDS011;68119;43.398;3.676;2023-07-16T04:32:14;7.70;;;2.78;;
78774;SDS011;68119;43.398;3.676;2023-07-16T04:34:54;6.85;;;2.70;;
78774;SDS011;68119;43.398;3.676;2023-07-16T04:37:25;9.60;;;2.78;;
78774;SDS011;68119;43.398;3.676;2023-07-16T04:39:56;5.22;;;2.30;;
78774;SDS011;68119;43.398;3.676;2023-07-16T04:42:27;3.70;;;2.33;;
78774;SDS011;68119;43.398;3.676;2023-07-16T04:44:52;4.85;;;2.30;;
78774;SDS011;68119;43.398;3.676;2023-07-16T04:47:24;5.88;;;2.60;;
78774;SDS011;68119;43.398;3.676;2023-07-16T04:49:53;5.18;;;2.50;;
78774;SDS011;68119;43.398;3.676;2023-07-16T04:52:27;5.28;;;2.70;;
78774;SDS011;68119;43.398;3.676;2023-07-16T04:55:01;6.22;;;2.40;;
78774;SDS011;68119;43.398;3.676;2023-07-16T04:57:30;8.57;;;2.53;;
78774;SDS011;68119;43.398;3.676;2023-07-16T05:00:03;6.75;;;2.30;;
78774;SDS011;68119;43.398;3.676;2023-07-16T05:02:33;5.07;;;2.60;;
78774;SDS011;68119;43.398;3.676;2023-07-16T05:04:59;6.20;;;2.40;;
78774;SDS011;68119;43.398;3.676;2023-07-16T05:07:27;5.15;;;2.22;;
78774;SDS011;68119;43.398;3.676;2023-07-16T05:09:53;4.75;;;2.40;;
78774;SDS011;68119;43.398;3.676;2023-07-16T05:12:21;4.55;;;2.50;;
78774;SDS011;68119;43.398;3.676;2023-07-16T05:14:51;5.07;;;2.50;;
78774;SDS011;68119;43.398;3.676;2023-07-16T05:17:17;6.53;;;2.60;;
78774;SDS011;68119;43.398;3.676;2023-07-16T05:19:45;6.72;;;2.60;;
78774;SDS011;68119;43.398;3.676;2023-07-16T05:22:15;5.88;;;2.53;;
78774;SDS011;68119;43.398;3.676;2023-07-16T05:24:49;7.97;;;2.53;;
78774;SDS011;68119;43.398;3.676;2023-07-16T05:27:15;5.95;;;2.85;;
78774;SDS011;68119;43.398;3.676;2023-07-16T05:29:43;5.10;;;2.47;;
78774;SDS011;68119;43.398;3.676;2023-07-16T05:32:17;4.28;;;2.60;;
78774;SDS011;68119;43.398;3.676;2023-07-16T05:34:46;4.95;;;2.40;;
78774;SDS011;68119;43.398;3.676;2023-07-16T05:37:17;4.93;;;2.50;;
78774;SDS011;68119;43.398;3.676;2023-07-16T05:39:48;7.50;;;2.75;;
78774;SDS011;68119;43.398;3.676;2023-07-16T05:42:16;5.20;;;2.50;;
78774;SDS011;68119;43.398;3.676;2023-07-16T05:44:46;5.60;;;2.50;;
78774;SDS011;68119;43.398;3.676;2023-07-16T05:47:15;5.35;;;2.42;;
78774;SDS011;68119;43.398;3.676;2023-07-16T05:49:47;5.00;;;2.53;;
78774;SDS011;68119;43.398;3.676;2023-07-16T05:52:13;8.20;;;2.60;;
78774;SDS011;68119;43.398;3.676;2023-07-16T05:54:39;14.20;;;2.60;;
78774;SDS011;68119;43.398;3.676;2023-07-16T05:57:08;8.38;;;2.83;;
78774;SDS011;68119;43.398;3.676;2023-07-16T05:59:39;8.48;;;2.63;;
78774;SDS011;68119;43.398;3.676;2023-07-16T06:02:12;6.22;;;2.75;;
78774;SDS011;68119;43.398;3.676;2023-07-16T06:04:41;5.13;;;2.55;;
78774;SDS011;68119;43.398;3.676;2023-07-16T06:07:09;8.73;;;2.63;;
78774;SDS011;68119;43.398;3.676;2023-07-16T06:09:38;5.18;;;2.65;;
78774;SDS011;68119;43.398;3.676;2023-07-16T06:12:06;4.68;;;2.50;;
78774;SDS011;68119;43.398;3.676;2023-07-16T06:14:40;8.05;;;2.53;;
78774;SDS011;68119;43.398;3.676;2023-07-16T06:17:09;4.45;;;2.40;;
78774;SDS011;68119;43.398;3.676;2023-07-16T06:19:35;6.50;;;2.70;;
78774;SDS011;68119;43.398;3.676;2023-07-16T06:22:04;6.20;;;2.50;;
78774;SDS011;68119;43.398;3.676;2023-07-16T06:24:30;4.53;;;2.28;;
78774;SDS011;68119;43.398;3.676;2023-07-16T06:26:59;6.85;;;2.55;;
78774;SDS011;68119;43.398;3.676;2023-07-16T06:29:32;5.00;;;2.70;;
78774;SDS011;68119;43.398;3.676;2023-07-16T06:32:06;5.60;;;2.30;;
78774;SDS011;68119;43.398;3.676;2023-07-16T06:34:35;5.78;;;2.65;;
78774;SDS011;68119;43.398;3.676;2023-07-16T06:37:03;5.05;;;2.67;;
78774;SDS011;68119;43.398;3.676;2023-07-16T06:39:34;3.92;;;2.50;;
78774;SDS011;68119;43.398;3.676;2023-07-16T06:42:05;5.05;;;2.50;;
78774;SDS011;68119;43.398;3.676;2023-07-16T06:44:38;5.90;;;2.50;;
78774;SDS011;68119;43.398;3.676;2023-07-16T06:47:07;6.22;;;2.50;;
78774;SDS011;68119;43.398;3.676;2023-07-16T06:49:38;6.15;;;2.40;;
78774;SDS011;68119;43.398;3.676;2023-07-16T06:52:06;4.05;;;2.50;;
78774;SDS011;68119;43.398;3.676;2023-07-16T06:54:43;6.80;;;2.97;;
78774;SDS011;68119;43.398;3.676;2023-07-16T06:57:11;5.00;;;2.78;;
78774;SDS011;68119;43.398;3.676;2023-07-16T06:59:40;4.10;;;2.85;;
78774;SDS011;68119;43.398;3.676;2023-07-16T07:02:11;5.63;;;2.75;;
78774;SDS011;68119;43.398;3.676;2023-07-16T07:04:46;6.10;;;3.20;;
78774;SDS011;68119;43.398;3.676;2023-07-16T07:07:11;9.57;;;3.08;;
78774;SDS011;68119;43.398;3.676;2023-07-16T07:09:40;5.93;;;2.90;;
78774;SDS011;68119;43.398;3.676;2023-07-16T07:12:09;6.88;;;3.35;;
78774;SDS011;68119;43.398;3.676;2023-07-16T07:14:40;7.90;;;3.30;;
78774;SDS011;68119;43.398;3.676;2023-07-16T07:17:10;6.25;;;3.60;;
78774;SDS011;68119;43.398;3.676;2023-07-16T07:19:44;9.98;;;3.38;;
78774;SDS011;68119;43.398;3.676;2023-07-16T07:22:13;6.22;;;3.05;;
78774;SDS011;68119;43.398;3.676;2023-07-16T07:24:39;8.07;;;3.50;;
78774;SDS011;68119;43.398;3.676;2023-07-16T07:27:10;6.60;;;3.30;;
78774;SDS011;68119;43.398;3.676;2023-07-16T07:29:39;5.95;;;3.55;;
78774;SDS011;68119;43.398;3.676;2023-07-16T07:32:05;5.57;;;3.20;;
78774;SDS011;68119;43.398;3.676;2023-07-16T07:34:35;6.70;;;3.65;;
78774;SDS011;68119;43.398;3.676;2023-07-16T07:37:01;7.28;;;3.55;;
78774;SDS011;68119;43.398;3.676;2023-07-16T07:39:30;7.22;;;3.70;;
78774;SDS011;68119;43.398;3.676;2023-07-16T07:41:58;8.13;;;3.22;;
78774;SDS011;68119;43.398;3.676;2023-07-16T07:46:57;6.93;;;3.30;;
78774;SDS011;68119;43.398;3.676;2023-07-16T07:49:28;5.65;;;2.90;;
78774;SDS011;68119;43.398;3.676;2023-07-16T07:52:00;5.85;;;3.00;;
78774;SDS011;68119;43.398;3.676;2023-07-16T07:54:31;5.90;;;2.78;;
78774;SDS011;68119;43.398;3.676;2023-07-16T07:57:05;9.05;;;3.10;;
78774;SDS011;68119;43.398;3.676;2023-07-16T07:59:34;4.93;;;3.10;;
78774;SDS011;68119;43.398;3.676;2023-07-16T08:02:03;5.57;;;2.70;;
78774;SDS011;68119;43.398;3.676;2023-07-16T08:04:31;7.95;;;3.10;;
78774;SDS011;68119;43.398;3.676;2023-07-16T08:06:57;7.97;;;3.20;;
78774;SDS011;68119;43.398;3.676;2023-07-16T08:09:29;7.00;;;3.45;;
78774;SDS011;68119;43.398;3.676;2023-07-16T08:11:57;6.82;;;3.10;;
78774;SDS011;68119;43.398;3.676;2023-07-16T08:14:28;6.25;;;3.20;;
78774;SDS011;68119;43.398;3.676;2023-07-16T08:16:57;5.55;;;2.97;;
78774;SDS011;68119;43.398;3.676;2023-07-16T08:19:23;7.63;;;3.30;;
78774;SDS011;68119;43.398;3.676;2023-07-16T08:21:52;5.68;;;3.30;;
78774;SDS011;68119;43.398;3.676;2023-07-16T08:24:23;7.35;;;3.90;;
78774;SDS011;68119;43.398;3.676;2023-07-16T08:26:55;7.68;;;4.00;;
78774;SDS011;68119;43.398;3.676;2023-07-16T08:29:26;8.27;;;3.70;;
78774;SDS011;68119;43.398;3.676;2023-07-16T08:31:52;7.38;;;4.05;;
78774;SDS011;68119;43.398;3.676;2023-07-16T08:34:21;5.72;;;3.65;;
78774;SDS011;68119;43.398;3.676;2023-07-16T08:36:52;6.43;;;3.78;;
78774;SDS011;68119;43.398;3.676;2023-07-16T08:39:18;7.50;;;4.00;;
78774;SDS011;68119;43.398;3.676;2023-07-16T08:41:47;7.55;;;3.58;;
78774;SDS011;68119;43.398;3.676;2023-07-16T08:44:22;8.85;;;3.75;;
78774;SDS011;68119;43.398;3.676;2023-07-16T08:46:49;10.15;;;4.15;;
78774;SDS011;68119;43.398;3.676;2023-07-16T08:49:17;9.98;;;3.70;;
78774;SDS011;68119;43.398;3.676;2023-07-16T08:51:49;5.28;;;3.58;;
78774;SDS011;68119;43.398;3.676;2023-07-16T08:54:21;6.00;;;3.50;;
78774;SDS011;68119;43.398;3.676;2023-07-16T08:56:48;6.63;;;3.78;;
78774;SDS011;68119;43.398;3.676;2023-07-16T08:59:16;9.10;;;3.85;;
78774;SDS011;68119;43.398;3.676;2023-07-16T09:01:48;7.43;;;3.90;;
78774;SDS011;68119;43.398;3.676;2023-07-16T09:04:22;8.77;;;3.50;;
78774;SDS011;68119;43.398;3.676;2023-07-16T09:06:48;5.40;;;3.60;;
78774;SDS011;68119;43.398;3.676;2023-07-16T09:09:22;7.35;;;4.10;;
78774;SDS011;68119;43.398;3.676;2023-07-16T09:11:51;6.32;;;3.60;;
78774;SDS011;68119;43.398;3.676;2023-07-16T09:14:19;7.72;;;3.80;;
78774;SDS011;68119;43.398;3.676;2023-07-16T09:16:52;6.93;;;3.53;;
78774;SDS011;68119;43.398;3.676;2023-07-16T09:19:21;5.00;;;3.28;;
78774;SDS011;68119;43.398;3.676;2023-07-16T09:21:47;8.48;;;3.80;;
78774;SDS011;68119;43.398;3.676;2023-07-16T09:24:14;8.02;;;4.07;;
78774;SDS011;68119;43.398;3.676;2023-07-16T09:26:49;5.88;;;3.20;;
78774;SDS011;68119;43.398;3.676;2023-07-16T09:29:22;10.02;;;3.90;;
78774;SDS011;68119;43.398;3.676;2023-07-16T09:31:59;6.63;;;3.47;;
78774;SDS011;68119;43.398;3.676;2023-07-16T09:34:30;5.15;;;3.50;;
78774;SDS011;68119;43.398;3.676;2023-07-16T09:37:04;5.30;;;3.38;;
78774;SDS011;68119;43.398;3.676;2023-07-16T09:39:37;5.13;;;3.65;;
78774;SDS011;68119;43.398;3.676;2023-07-16T09:42:06;6.35;;;3.95;;
78774;SDS011;68119;43.398;3.676;2023-07-16T09:44:44;7.68;;;3.80;;
78774;SDS011;68119;43.398;3.676;2023-07-16T09:47:12;5.65;;;3.42;;
78774;SDS011;68119;43.398;3.676;2023-07-16T09:49:41;6.80;;;3.65;;
78774;SDS011;68119;43.398;3.676;2023-07-16T09:52:13;6.82;;;3.58;;
78774;SDS011;68119;43.398;3.676;2023-07-16T09:54:45;7.68;;;3.38;;
78774;SDS011;68119;43.398;3.676;2023-07-16T09:57:16;8.75;;;3.85;;
78774;SDS011;68119;43.398;3.676;2023-07-16T09:59:44;5.13;;;3.35;;
78774;SDS011;68119;43.398;3.676;2023-07-16T10:02:13;5.30;;;3.30;;
78774;SDS011;68119;43.398;3.676;2023-07-16T10:04:45;7.47;;;3.60;;
78774;SDS011;68119;43.398;3.676;2023-07-16T10:07:20;7.90;;;3.25;;
78774;SDS011;68119;43.398;3.676;2023-07-16T10:09:52;6.40;;;3.25;;
78774;SDS011;68119;43.398;3.676;2023-07-16T10:12:22;6.05;;;3.47;;
78774;SDS011;68119;43.398;3.676;2023-07-16T10:14:55;6.75;;;4.20;;
78774;SDS011;68119;43.398;3.676;2023-07-16T10:17:30;6.70;;;4.05;;
78774;SDS011;68119;43.398;3.676;2023-07-16T10:20:10;6.18;;;3.83;;
78774;SDS011;68119;43.398;3.676;2023-07-16T10:22:39;6.50;;;3.50;;
78774;SDS011;68119;43.398;3.676;2023-07-16T10:25:21;7.78;;;3.70;;
78774;SDS011;68119;43.398;3.676;2023-07-16T10:27:51;13.20;;;3.60;;
78774;SDS011;68119;43.398;3.676;2023-07-16T10:30:21;10.10;;;3.10;;
78774;SDS011;68119;43.398;3.676;2023-07-16T10:32:53;6.40;;;3.33;;
78774;SDS011;68119;43.398;3.676;2023-07-16T10:35:22;6.78;;;3.55;;
78774;SDS011;68119;43.398;3.676;2023-07-16T10:37:54;6.43;;;3.60;;
78774;SDS011;68119;43.398;3.676;2023-07-16T10:40:22;6.18;;;3.80;;
78774;SDS011;68119;43.398;3.676;2023-07-16T10:42:48;6.72;;;3.75;;
78774;SDS011;68119;43.398;3.676;2023-07-16T10:45:14;6.55;;;3.55;;
78774;SDS011;68119;43.398;3.676;2023-07-16T10:47:52;5.65;;;3.80;;
78774;SDS011;68119;43.398;3.676;2023-07-16T10:50:21;7.80;;;4.07;;
78774;SDS011;68119;43.398;3.676;2023-07-16T10:52:51;7.72;;;3.70;;
78774;SDS011;68119;43.398;3.676;2023-07-16T10:55:19;9.93;;;3.90;;
78774;SDS011;68119;43.398;3.676;2023-07-16T10:57:51;8.68;;;3.90;;
78774;SDS011;68119;43.398;3.676;2023-07-16T11:00:19;7.50;;;3.60;;
78774;SDS011;68119;43.398;3.676;2023-07-16T11:02:49;8.18;;;3.67;;
78774;SDS011;68119;43.398;3.676;2023-07-16T11:05:19;9.05;;;3.83;;
78774;SDS011;68119;43.398;3.676;2023-07-16T11:07:45;9.73;;;3.97;;
78774;SDS011;68119;43.398;3.676;2023-07-16T11:10:12;7.97;;;3.53;;
78774;SDS011;68119;43.398;3.676;2023-07-16T11:12:49;10.35;;;3.97;;
78774;SDS011;68119;43.398;3.676;2023-07-16T11:15:33;10.25;;;4.05;;
78774;SDS011;68119;43.398;3.676;2023-07-16T11:18:00;8.80;;;3.88;;
78774;SDS011;68119;43.398;3.676;2023-07-16T11:20:32;9.57;;;3.83;;
78774;SDS011;68119;43.398;3.676;2023-07-16T11:23:04;7.60;;;3.65;;
78774;SDS011;68119;43.398;3.676;2023-07-16T11:25:37;10.00;;;3.95;;
78774;SDS011;68119;43.398;3.676;2023-07-16T11:28:08;10.25;;;3.92;;
78774;SDS011;68119;43.398;3.676;2023-07-16T11:30:42;9.25;;;3.72;;
78774;SDS011;68119;43.398;3.676;2023-07-16T11:33:11;8.68;;;4.15;;
78774;SDS011;68119;43.398;3.676;2023-07-16T11:35:40;8.17;;;3.67;;
78774;SDS011;68119;43.398;3.676;2023-07-16T11:38:06;9.48;;;3.78;;
78774;SDS011;68119;43.398;3.676;2023-07-16T11:40:38;9.43;;;3.63;;
78774;SDS011;68119;43.398;3.676;2023-07-16T11:43:13;8.85;;;3.53;;
78774;SDS011;68119;43.398;3.676;2023-07-16T11:45:46;9.15;;;3.30;;
78774;SDS011;68119;43.398;3.676;2023-07-16T11:48:13;6.80;;;3.10;;
78774;SDS011;68119;43.398;3.676;2023-07-16T11:50:40;6.22;;;3.05;;
78774;SDS011;68119;43.398;3.676;2023-07-16T11:53:08;4.90;;;2.70;;
78774;SDS011;68119;43.398;3.676;2023-07-16T11:55:34;7.75;;;3.80;;
78774;SDS011;68119;43.398;3.676;2023-07-16T11:58:00;6.30;;;3.35;;
78774;SDS011;68119;43.398;3.676;2023-07-16T12:00:29;7.68;;;3.42;;
78774;SDS011;68119;43.398;3.676;2023-07-16T12:02:58;6.75;;;3.20;;
78774;SDS011;68119;43.398;3.676;2023-07-16T12:05:26;7.65;;;3.63;;
78774;SDS011;68119;43.398;3.676;2023-07-16T12:07:55;6.90;;;3.33;;
78774;SDS011;68119;43.398;3.676;2023-07-16T12:10:24;6.97;;;3.22;;
78774;SDS011;68119;43.398;3.676;2023-07-16T12:12:50;10.95;;;3.50;;
78774;SDS011;68119;43.398;3.676;2023-07-16T12:15:19;6.03;;;3.35;;
78774;SDS011;68119;43.398;3.676;2023-07-16T12:17:47;8.50;;;3.28;;
78774;SDS011;68119;43.398;3.676;2023-07-16T12:20:14;8.63;;;3.10;;
78774;SDS011;68119;43.398;3.676;2023-07-16T12:22:42;5.25;;;2.88;;
78774;SDS011;68119;43.398;3.676;2023-07-16T12:25:08;9.20;;;3.05;;
78774;SDS011;68119;43.398;3.676;2023-07-16T12:27:34;9.00;;;3.40;;
78774;SDS011;68119;43.398;3.676;2023-07-16T12:30:03;6.78;;;3.22;;
78774;SDS011;68119;43.398;3.676;2023-07-16T12:32:29;7.28;;;3.40;;
78774;SDS011;68119;43.398;3.676;2023-07-16T12:34:58;7.70;;;3.40;;
78774;SDS011;68119;43.398;3.676;2023-07-16T12:37:25;10.50;;;3.83;;
78774;SDS011;68119;43.398;3.676;2023-07-16T12:39:54;7.53;;;3.10;;
78774;SDS011;68119;43.398;3.676;2023-07-16T12:42:20;6.35;;;3.30;;
78774;SDS011;68119;43.398;3.676;2023-07-16T12:44:49;6.22;;;3.13;;
78774;SDS011;68119;43.398;3.676;2023-07-16T12:47:17;6.63;;;3.03;;
78774;SDS011;68119;43.398;3.676;2023-07-16T12:49:46;6.80;;;3.10;;
78774;SDS011;68119;43.398;3.676;2023-07-16T12:52:12;5.72;;;3.10;;
78774;SDS011;68119;43.398;3.676;2023-07-16T12:54:38;4.88;;;3.20;;
78774;SDS011;68119;43.398;3.676;2023-07-16T12:57:07;4.85;;;2.88;;
78774;SDS011;68119;43.398;3.676;2023-07-16T12:59:35;7.43;;;3.10;;
78774;SDS011;68119;43.398;3.676;2023-07-16T13:02:02;6.07;;;3.47;;
78774;SDS011;68119;43.398;3.676;2023-07-16T13:04:34;7.22;;;3.25;;
78774;SDS011;68119;43.398;3.676;2023-07-16T13:07:00;8.88;;;3.30;;
78774;SDS011;68119;43.398;3.676;2023-07-16T13:09:31;6.97;;;3.17;;
78774;SDS011;68119;43.398;3.676;2023-07-16T13:12:00;5.95;;;3.30;;
78774;SDS011;68119;43.398;3.676;2023-07-16T13:14:26;6.28;;;3.13;;
78774;SDS011;68119;43.398;3.676;2023-07-16T13:16:55;7.43;;;2.97;;
78774;SDS011;68119;43.398;3.676;2023-07-16T13:19:21;11.07;;;3.50;;
78774;SDS011;68119;43.398;3.676;2023-07-16T13:21:47;7.78;;;3.30;;
78774;SDS011;68119;43.398;3.676;2023-07-16T13:24:13;8.45;;;3.45;;
78774;SDS011;68119;43.398;3.676;2023-07-16T13:26:41;6.22;;;3.45;;
78774;SDS011;68119;43.398;3.676;2023-07-16T13:29:08;8.48;;;3.20;;
78774;SDS011;68119;43.398;3.676;2023-07-16T13:31:35;8.98;;;3.70;;
78774;SDS011;68119;43.398;3.676;2023-07-16T13:34:10;6.15;;;3.45;;
78774;SDS011;68119;43.398;3.676;2023-07-16T13:36:40;5.90;;;3.45;;
78774;SDS011;68119;43.398;3.676;2023-07-16T13:39:09;7.30;;;3.53;;
78774;SDS011;68119;43.398;3.676;2023-07-16T13:41:41;7.07;;;3.50;;
78774;SDS011;68119;43.398;3.676;2023-07-16T13:44:12;8.27;;;3.55;;
78774;SDS011;68119;43.398;3.676;2023-07-16T13:46:41;10.52;;;3.40;;
78774;SDS011;68119;43.398;3.676;2023-07-16T13:49:09;11.00;;;3.92;;
78774;SDS011;68119;43.398;3.676;2023-07-16T13:51:38;7.75;;;3.50;;
78774;SDS011;68119;43.398;3.676;2023-07-16T13:54:06;8.10;;;3.80;;
78774;SDS011;68119;43.398;3.676;2023-07-16T13:56:37;6.85;;;3.78;;
78774;SDS011;68119;43.398;3.676;2023-07-16T13:59:03;7.28;;;3.42;;
78774;SDS011;68119;43.398;3.676;2023-07-16T14:01:38;8.55;;;3.65;;
78774;SDS011;68119;43.398;3.676;2023-07-16T14:04:05;9.23;;;3.75;;
78774;SDS011;68119;43.398;3.676;2023-07-16T14:06:33;7.75;;;3.42;;
78774;SDS011;68119;43.398;3.676;2023-07-16T14:09:03;8.23;;;3.70;;
78774;SDS011;68119;43.398;3.676;2023-07-16T14:11:34;7.72;;;3.50;;
78774;SDS011;68119;43.398;3.676;2023-07-16T14:14:11;7.25;;;3.60;;
78774;SDS011;68119;43.398;3.676;2023-07-16T14:16:44;12.30;;;4.03;;
78774;SDS011;68119;43.398;3.676;2023-07-16T14:19:10;9.57;;;4.00;;
78774;SDS011;68119;43.398;3.676;2023-07-16T14:21:44;8.82;;;3.83;;
78774;SDS011;68119;43.398;3.676;2023-07-16T14:24:10;8.63;;;3.50;;
78774;SDS011;68119;43.398;3.676;2023-07-16T14:26:41;10.50;;;3.95;;
78774;SDS011;68119;43.398;3.676;2023-07-16T14:29:09;6.53;;;3.47;;
78774;SDS011;68119;43.398;3.676;2023-07-16T14:31:38;8.38;;;3.38;;
78774;SDS011;68119;43.398;3.676;2023-07-16T14:34:12;6.90;;;3.67;;
78774;SDS011;68119;43.398;3.676;2023-07-16T14:36:41;6.53;;;3.60;;
78774;SDS011;68119;43.398;3.676;2023-07-16T14:39:10;7.10;;;3.95;;
78774;SDS011;68119;43.398;3.676;2023-07-16T14:41:38;8.30;;;4.20;;
78774;SDS011;68119;43.398;3.676;2023-07-16T14:44:07;7.93;;;3.53;;
78774;SDS011;68119;43.398;3.676;2023-07-16T14:46:37;6.32;;;3.72;;
78774;SDS011;68119;43.398;3.676;2023-07-16T14:49:03;6.82;;;3.60;;
78774;SDS011;68119;43.398;3.676;2023-07-16T14:51:34;8.15;;;4.00;;
78774;SDS011;68119;43.398;3.676;2023-07-16T14:54:06;8.55;;;3.95;;
78774;SDS011;68119;43.398;3.676;2023-07-16T14:56:42;8.02;;;3.80;;
78774;SDS011;68119;43.398;3.676;2023-07-16T14:59:13;6.95;;;3.65;;
78774;SDS011;68119;43.398;3.676;2023-07-16T15:04:10;7.22;;;3.63;;
78774;SDS011;68119;43.398;3.676;2023-07-16T15:06:40;6.65;;;3.67;;
78774;SDS011;68119;43.398;3.676;2023-07-16T15:09:09;6.30;;;3.47;;
78774;SDS011;68119;43.398;3.676;2023-07-16T15:11:39;7.05;;;3.85;;
78774;SDS011;68119;43.398;3.676;2023-07-16T15:14:07;8.90;;;4.07;;
78774;SDS011;68119;43.398;3.676;2023-07-16T15:16:36;7.88;;;3.85;;
78774;SDS011;68119;43.398;3.676;2023-07-16T15:19:08;8.57;;;3.42;;
78774;SDS011;68119;43.398;3.676;2023-07-16T15:21:39;8.48;;;4.05;;
78774;SDS011;68119;43.398;3.676;2023-07-16T15:24:10;10.32;;;3.83;;
78774;SDS011;68119;43.398;3.676;2023-07-16T15:26:45;9.98;;;3.85;;
78774;SDS011;68119;43.398;3.676;2023-07-16T15:29:16;8.60;;;4.05;;